Portada
METAR-TAF:

METAR-TAF

Aeroports :

Iwo Jima, Japó

latitud: 24-47N, longitud: 141-19E, altitud: 113 m

Observació

L'informe es va fer fa 45 minuts, a les 08:00 UTC
Vent 14 kt del Nord/Nord-Est
Temperatura 23°C
Humitat 83%
Pressió 1013 hPa
Visibilitat 10 km o més
Escasses núvols a una alçada de 500 ft
Cel ennuvolat a una alçada de 1000 ft
Cel ennuvolat a una alçada de 6000 ft
xàfecs de pluja

METAR: RJAW 120800Z 03014KT 9999 -SHRA FEW005 BKN010 BKN060 23/20 Q1013 RMK 2ST005 5CU010 7SC060 A2991

Hora: 17:45 (08:45 UTC)


TAF: manca

Observacions i pronòstics meteorològics de més de 4000 aeroports (METAR i TAF).

Les estacions disponibles són els punts grocs i vermells al mapa.

Posi el ratolí al punt desitjat per veure el nom de l'estació.

Feu clic per veure les observacions i els pronòstics meteorològics.

Per canviar el mapa: feu clic els botons verds amb una creu de color negre per apropar; al botó verd amb un guió per allunyar la imatge; o en les fletxes verdes per a mapes adjacents.


METAR-TAF: